createdAt,value
2016-05-31T00:00:44.830Z,999.18
2016-05-31T00:01:44.880Z,999.22
2016-05-31T00:02:44.930Z,999.21
2016-05-31T00:03:44.994Z,999.21
2016-05-31T00:04:45.028Z,999.21
2016-05-31T00:05:45.094Z,999.23
2016-05-31T00:06:45.143Z,999.25
2016-05-31T00:07:45.193Z,999.25
2016-05-31T00:08:45.258Z,999.26
2016-05-31T00:09:45.308Z,999.32
2016-05-31T00:10:45.357Z,999.32
2016-05-31T00:11:45.407Z,999.3
2016-05-31T00:12:45.456Z,999.3
2016-05-31T00:13:45.521Z,999.35
2016-05-31T00:14:45.587Z,999.37
2016-05-31T00:15:45.621Z,999.37
2016-05-31T00:16:45.685Z,999.35
2016-05-31T00:17:45.734Z,999.36
2016-05-31T00:18:45.801Z,999.36
2016-05-31T00:19:45.835Z,999.35
2016-05-31T00:20:45.900Z,999.34
2016-05-31T00:21:45.948Z,999.32
2016-05-31T00:22:46.295Z,999.31
2016-05-31T00:23:46.063Z,999.34
2016-05-31T00:24:46.098Z,999.33
2016-05-31T00:25:46.163Z,999.32
2016-05-31T00:26:46.212Z,999.36
2016-05-31T00:27:46.261Z,999.29
2016-05-31T00:28:46.328Z,999.32
2016-05-31T00:29:46.377Z,999.36
2016-05-31T00:30:46.442Z,999.33
2016-05-31T00:31:46.491Z,999.34
2016-05-31T00:32:46.541Z,999.3
2016-05-31T00:33:46.591Z,999.33
2016-05-31T00:34:46.641Z,999.32
2016-05-31T00:35:46.705Z,999.31
2016-05-31T00:36:46.755Z,999.31
2016-05-31T00:37:46.804Z,999.35
2016-05-31T00:38:46.855Z,999.34
2016-05-31T00:39:46.904Z,999.37
2016-05-31T00:40:46.968Z,999.35
2016-05-31T00:41:47.002Z,999.37
2016-05-31T00:42:47.068Z,999.4
2016-05-31T00:43:47.118Z,999.37
2016-05-31T00:44:47.182Z,999.38
2016-05-31T00:45:47.217Z,999.41
2016-05-31T00:46:47.282Z,999.4
2016-05-31T00:47:47.332Z,999.4
2016-05-31T00:48:47.382Z,999.4
2016-05-31T00:49:47.446Z,999.44
2016-05-31T00:50:47.495Z,999.4
2016-05-31T00:51:47.546Z,999.4
2016-05-31T00:52:47.595Z,999.4
2016-05-31T00:53:47.645Z,999.44
2016-05-31T00:54:47.709Z,999.43
2016-05-31T00:55:47.759Z,999.41
2016-05-31T00:56:47.809Z,999.49
2016-05-31T00:57:47.874Z,999.5
2016-05-31T00:58:47.970Z,999.48
2016-05-31T00:59:47.973Z,999.47
2016-05-31T01:00:48.038Z,999.48
2016-05-31T01:01:48.088Z,999.46
2016-05-31T01:02:48.138Z,999.49
2016-05-31T01:03:48.187Z,999.45
2016-05-31T01:04:48.236Z,999.45
2016-05-31T01:05:48.302Z,999.46
2016-05-31T01:06:48.352Z,999.49
2016-05-31T01:07:48.401Z,999.48
2016-05-31T01:08:48.450Z,999.53
2016-05-31T01:09:48.516Z,999.56
2016-05-31T01:10:48.565Z,999.54
2016-05-31T01:11:48.615Z,999.6
2016-05-31T01:12:48.680Z,999.6
2016-05-31T01:13:48.729Z,999.56
2016-05-31T01:14:48.779Z,999.57
2016-05-31T01:15:48.829Z,999.6
2016-05-31T01:16:48.878Z,999.59
2016-05-31T01:17:48.928Z,999.57
2016-05-31T01:18:48.993Z,999.62
2016-05-31T01:19:49.042Z,999.6
2016-05-31T01:20:49.092Z,999.6
2016-05-31T01:21:49.157Z,999.59
2016-05-31T01:22:49.222Z,999.59
2016-05-31T01:23:49.304Z,999.62
2016-05-31T01:24:49.322Z,999.62
2016-05-31T01:25:49.543Z,999.61
2016-05-31T01:26:49.405Z,999.6
2016-05-31T01:27:49.470Z,999.6
2016-05-31T01:28:49.520Z,999.6
2016-05-31T01:29:49.586Z,999.6
2016-05-31T01:30:49.634Z,999.63
2016-05-31T01:31:49.684Z,999.61
2016-05-31T01:32:49.749Z,999.65
2016-05-31T01:33:49.784Z,999.65
2016-05-31T01:34:49.849Z,999.69
2016-05-31T01:35:49.913Z,999.67
2016-05-31T01:36:49.948Z,999.67
2016-05-31T01:37:49.997Z,999.68
2016-05-31T01:38:50.047Z,999.68
2016-05-31T01:39:50.112Z,999.71
2016-05-31T01:40:50.161Z,999.7
2016-05-31T01:41:50.210Z,999.71
2016-05-31T01:42:50.276Z,999.72
2016-05-31T01:43:50.326Z,999.78
2016-05-31T01:44:50.376Z,999.78
2016-05-31T01:45:50.424Z,999.77
2016-05-31T01:46:50.490Z,999.74
2016-05-31T01:47:50.540Z,999.76
2016-05-31T01:48:50.590Z,999.78
2016-05-31T01:49:50.639Z,999.75
2016-05-31T01:50:50.704Z,999.75
2016-05-31T01:51:50.738Z,999.73
2016-05-31T01:52:51.022Z,999.78
2016-05-31T01:53:50.853Z,999.78
2016-05-31T01:54:50.918Z,999.8
2016-05-31T01:55:50.968Z,999.77
2016-05-31T01:56:51.017Z,999.76
2016-05-31T01:57:51.067Z,999.79
2016-05-31T01:58:51.178Z,999.78
2016-05-31T01:59:51.197Z,999.78
2016-05-31T02:00:51.231Z,999.79
2016-05-31T02:01:51.297Z,999.77
2016-05-31T02:02:51.345Z,999.8
2016-05-31T02:03:51.395Z,999.81
2016-05-31T02:04:51.444Z,999.77
2016-05-31T02:05:51.495Z,999.82
2016-05-31T02:06:51.544Z,999.8
2016-05-31T02:07:51.608Z,999.76
2016-05-31T02:08:51.658Z,999.79
2016-05-31T02:09:51.708Z,999.81
2016-05-31T02:10:51.774Z,999.77
2016-05-31T02:11:51.808Z,999.77
2016-05-31T02:12:51.872Z,999.79
2016-05-31T02:13:51.938Z,999.82
2016-05-31T02:14:51.972Z,999.81
2016-05-31T02:15:52.021Z,999.8
2016-05-31T02:16:52.087Z,999.79
2016-05-31T02:17:52.152Z,999.82
2016-05-31T02:18:52.202Z,999.86
2016-05-31T02:19:52.266Z,999.85
2016-05-31T02:20:52.301Z,999.92
2016-05-31T02:21:52.350Z,999.92
2016-05-31T02:22:52.399Z,999.89
2016-05-31T02:23:52.449Z,999.92
2016-05-31T02:24:52.515Z,999.88
2016-05-31T02:25:52.580Z,999.9
2016-05-31T02:26:52.629Z,999.88
2016-05-31T02:27:52.663Z,999.88
2016-05-31T02:28:52.729Z,999.86
2016-05-31T02:29:52.778Z,999.88
2016-05-31T02:30:52.828Z,999.86
2016-05-31T02:31:52.892Z,999.87
2016-05-31T02:32:52.942Z,999.88
2016-05-31T02:33:52.992Z,999.85
2016-05-31T02:34:53.042Z,999.87
2016-05-31T02:35:53.091Z,999.85
2016-05-31T02:36:53.156Z,999.91
2016-05-31T02:37:53.205Z,999.91
2016-05-31T02:38:53.255Z,999.95
2016-05-31T02:39:53.320Z,999.96
2016-05-31T02:40:53.369Z,999.95
2016-05-31T02:41:53.419Z,999.97
2016-05-31T02:42:53.469Z,999.97
2016-05-31T02:43:53.535Z,1000
2016-05-31T02:44:53.568Z,1000.01
2016-05-31T02:45:53.633Z,1000.01
2016-05-31T02:46:53.682Z,1000
2016-05-31T02:47:53.748Z,1000.01
2016-05-31T02:48:53.798Z,1000
2016-05-31T02:49:53.847Z,1000.01
2016-05-31T02:50:53.897Z,1000
2016-05-31T02:51:53.946Z,999.99
2016-05-31T02:52:54.402Z,1000.02
2016-05-31T02:53:54.061Z,1000.07
2016-05-31T02:54:54.126Z,1000.07
2016-05-31T02:55:54.176Z,1000.12
2016-05-31T02:56:54.226Z,1000.12
2016-05-31T02:57:54.275Z,1000.2
2016-05-31T02:58:54.387Z,1000.16
2016-05-31T02:59:54.373Z,1000.19
2016-05-31T03:00:54.440Z,1000.25
2016-05-31T03:01:54.489Z,1000.26
2016-05-31T03:02:54.539Z,1000.23
2016-05-31T03:03:54.603Z,1000.23
2016-05-31T03:04:54.653Z,1000.26
2016-05-31T03:05:54.703Z,1000.23
2016-05-31T03:06:54.752Z,1000.29
2016-05-31T03:07:54.818Z,1000.29
2016-05-31T03:08:54.867Z,1000.31
2016-05-31T03:09:54.917Z,1000.33
2016-05-31T03:10:54.982Z,1000.36
2016-05-31T03:11:55.030Z,1000.31
2016-05-31T03:12:55.081Z,1000.36
2016-05-31T03:13:55.130Z,1000.39
2016-05-31T03:14:55.180Z,1000.4
2016-05-31T03:15:55.230Z,1000.42
2016-05-31T03:16:55.294Z,1000.43
2016-05-31T03:17:55.344Z,1000.45
2016-05-31T03:18:55.394Z,1000.46
2016-05-31T03:19:55.443Z,1000.45
2016-05-31T03:20:55.509Z,1000.45
2016-05-31T03:21:55.558Z,1000.49
2016-05-31T03:22:55.608Z,1000.48
2016-05-31T03:23:55.657Z,1000.46
2016-05-31T03:24:55.723Z,1000.45
2016-05-31T03:25:55.773Z,1000.5
2016-05-31T03:26:55.837Z,1000.52
2016-05-31T03:27:55.886Z,1000.55
2016-05-31T03:28:55.937Z,1000.58
2016-05-31T03:29:55.986Z,1000.61
2016-05-31T03:30:56.036Z,1000.58
2016-05-31T03:31:56.085Z,1000.64
2016-05-31T03:32:56.150Z,1000.64
2016-05-31T03:33:56.200Z,1000.63
2016-05-31T03:34:56.250Z,1000.68
2016-05-31T03:35:56.300Z,1000.69
2016-05-31T03:36:56.348Z,1000.68
2016-05-31T03:37:56.414Z,1000.69
2016-05-31T03:38:56.464Z,1000.69
2016-05-31T03:39:56.513Z,1000.69
2016-05-31T03:40:56.578Z,1000.71
2016-05-31T03:41:56.627Z,1000.71
2016-05-31T03:42:56.677Z,1000.72
2016-05-31T03:43:56.727Z,1000.75
2016-05-31T03:44:56.791Z,1000.75
2016-05-31T03:45:56.842Z,1000.73
2016-05-31T03:46:56.891Z,1000.76
2016-05-31T03:47:56.956Z,1000.72
2016-05-31T03:48:56.991Z,1000.73
2016-05-31T03:49:57.055Z,1000.7
2016-05-31T03:50:57.089Z,1000.69
2016-05-31T03:51:57.155Z,1000.68
2016-05-31T03:52:57.204Z,1000.63
2016-05-31T03:53:57.269Z,1000.63
2016-05-31T03:54:57.319Z,1000.64
2016-05-31T03:55:57.368Z,1000.64
2016-05-31T03:56:57.418Z,1000.64
2016-05-31T03:57:57.468Z,1000.71
2016-05-31T03:58:57.579Z,1000.65
2016-05-31T03:59:57.582Z,1000.69
2016-05-31T04:00:57.631Z,1000.65
2016-05-31T04:01:57.698Z,1000.65
2016-05-31T04:02:57.747Z,1000.62
2016-05-31T04:03:57.795Z,1000.65
2016-05-31T04:04:57.846Z,1000.62
2016-05-31T04:05:57.911Z,1000.65
2016-05-31T04:06:57.960Z,1000.68
2016-05-31T04:07:58.025Z,1000.69
2016-05-31T04:08:58.060Z,1000.71
2016-05-31T04:09:58.125Z,1000.72
2016-05-31T04:10:58.174Z,1000.72
2016-05-31T04:11:58.225Z,1000.72
2016-05-31T04:12:58.289Z,1000.72
2016-05-31T04:13:58.322Z,1000.71
2016-05-31T04:14:58.388Z,1000.7
2016-05-31T04:15:58.438Z,1000.67
2016-05-31T04:16:58.488Z,1000.73
2016-05-31T04:17:58.537Z,1000.72
2016-05-31T04:18:58.602Z,1000.7
2016-05-31T04:19:58.652Z,1000.74
2016-05-31T04:20:58.701Z,1000.74
2016-05-31T04:21:58.766Z,1000.78
2016-05-31T04:22:58.816Z,1000.82
2016-05-31T04:23:58.866Z,1000.81
2016-05-31T04:24:58.915Z,1000.86
2016-05-31T04:25:58.965Z,1000.82
2016-05-31T04:26:59.030Z,1000.84
2016-05-31T04:27:59.079Z,1000.88
2016-05-31T04:28:59.128Z,1000.85
2016-05-31T04:29:59.194Z,1000.89
2016-05-31T04:30:59.244Z,1000.91
2016-05-31T04:31:59.293Z,1000.92
2016-05-31T04:32:59.342Z,1000.99
2016-05-31T04:33:59.393Z,1000.99
2016-05-31T04:34:59.442Z,1000.99
2016-05-31T04:35:59.506Z,1001.02
2016-05-31T04:36:59.557Z,1001.02
2016-05-31T04:37:59.809Z,1001.08
2016-05-31T04:38:59.672Z,1001.05
2016-05-31T04:39:59.721Z,1001.09
2016-05-31T04:40:59.771Z,1001.1
2016-05-31T04:41:59.820Z,1001.11
2016-05-31T04:42:59.885Z,1001.12
2016-05-31T04:43:59.935Z,1001.07
2016-05-31T04:45:00.000Z,1001.14
2016-05-31T04:46:00.034Z,1001.17
2016-05-31T04:47:00.099Z,1001.1
2016-05-31T04:48:00.164Z,1001.09
2016-05-31T04:49:00.214Z,1001.13
2016-05-31T04:50:00.263Z,1001.15
2016-05-31T04:51:00.313Z,1001.17
2016-05-31T04:52:00.363Z,1001.19
2016-05-31T04:53:00.413Z,1001.22
2016-05-31T04:54:00.477Z,1001.23
2016-05-31T04:55:00.512Z,1001.28
2016-05-31T04:56:00.576Z,1001.26
2016-05-31T04:57:00.626Z,1001.26
2016-05-31T04:58:00.676Z,1001.26
2016-05-31T04:59:00.772Z,1001.24
2016-05-31T05:00:00.791Z,1001.28
2016-05-31T05:01:00.840Z,1001.29
2016-05-31T05:02:00.889Z,1001.25
2016-05-31T05:03:00.955Z,1001.26
2016-05-31T05:04:01.004Z,1001.28
2016-05-31T05:05:01.054Z,1001.29
2016-05-31T05:06:01.103Z,1001.3
2016-05-31T05:07:01.154Z,1001.24
2016-05-31T05:08:01.218Z,1001.29
2016-05-31T05:09:01.267Z,1001.32
2016-05-31T05:10:01.317Z,1001.34
2016-05-31T05:11:01.382Z,1001.35
2016-05-31T05:12:01.433Z,1001.36
2016-05-31T05:13:01.481Z,1001.33
2016-05-31T05:14:01.547Z,1001.37
2016-05-31T05:15:01.612Z,1001.37
2016-05-31T05:16:01.646Z,1001.4
2016-05-31T05:17:01.696Z,1001.42
2016-05-31T05:18:01.744Z,1001.45
2016-05-31T05:19:01.795Z,1001.43
2016-05-31T05:20:01.844Z,1001.43
2016-05-31T05:21:01.910Z,1001.51
2016-05-31T05:22:01.959Z,1001.52
2016-05-31T05:23:02.024Z,1001.54
2016-05-31T05:24:02.074Z,1001.56
2016-05-31T05:25:02.123Z,1001.54
2016-05-31T05:26:02.173Z,1001.6
2016-05-31T05:27:02.238Z,1001.59
2016-05-31T05:28:02.288Z,1001.59
2016-05-31T05:29:02.337Z,1001.59
2016-05-31T05:30:02.387Z,1001.62
2016-05-31T05:31:02.452Z,1001.61
2016-05-31T05:32:02.486Z,1001.59
2016-05-31T05:33:02.551Z,1001.65
2016-05-31T05:34:02.601Z,1001.67
2016-05-31T05:35:02.666Z,1001.65
2016-05-31T05:36:02.715Z,1001.64
2016-05-31T05:37:02.765Z,1001.64
2016-05-31T05:38:02.814Z,1001.67
2016-05-31T05:39:02.895Z,1001.67
2016-05-31T05:40:02.929Z,1001.71
2016-05-31T05:41:02.978Z,1001.66
2016-05-31T05:42:03.029Z,1001.65
2016-05-31T05:43:03.094Z,1001.59
2016-05-31T05:44:03.144Z,1001.67
2016-05-31T05:45:03.192Z,1001.64
2016-05-31T05:46:03.242Z,1001.65
2016-05-31T05:47:03.292Z,1001.69
2016-05-31T05:48:03.357Z,1001.73
2016-05-31T05:49:03.407Z,1001.72
2016-05-31T05:50:03.455Z,1001.7
2016-05-31T05:51:03.522Z,1001.69
2016-05-31T05:52:03.571Z,1001.65
2016-05-31T05:53:03.620Z,1001.63
2016-05-31T05:54:03.671Z,1001.64
2016-05-31T05:55:03.719Z,1001.66
2016-05-31T05:56:03.769Z,1001.68
2016-05-31T05:57:03.843Z,1001.7
2016-05-31T05:58:03.920Z,1001.69
2016-05-31T05:59:04.058Z,1001.67
2016-05-31T06:00:04.071Z,1001.62
2016-05-31T06:01:04.163Z,1001.62
2016-05-31T06:02:04.234Z,1001.59
2016-05-31T06:03:04.293Z,1001.61
2016-05-31T06:04:04.352Z,1001.63
2016-05-31T06:05:04.427Z,1001.64
2016-05-31T06:06:04.486Z,1001.66
2016-05-31T06:07:04.543Z,1001.67
2016-05-31T06:08:04.611Z,1001.7
2016-05-31T06:09:04.665Z,1001.68
2016-05-31T06:10:04.718Z,1001.71
2016-05-31T06:11:04.771Z,1001.69
2016-05-31T06:12:04.823Z,1001.7
2016-05-31T06:13:04.888Z,1001.69
2016-05-31T06:14:04.925Z,1001.7
2016-05-31T06:15:04.991Z,1001.72
2016-05-31T06:16:05.041Z,1001.72
2016-05-31T06:17:05.107Z,1001.77
2016-05-31T06:18:05.157Z,1001.82
2016-05-31T06:19:05.207Z,1001.83
2016-05-31T06:20:05.257Z,1001.84
2016-05-31T06:21:05.307Z,1001.87
2016-05-31T06:22:05.358Z,1001.92
2016-05-31T06:23:05.407Z,1001.87
2016-05-31T06:24:05.471Z,1001.92
2016-05-31T06:25:05.522Z,1001.91
2016-05-31T06:26:05.587Z,1001.86
2016-05-31T06:27:05.636Z,1001.9
2016-05-31T06:28:05.685Z,1001.88
2016-05-31T06:29:05.735Z,1001.89
2016-05-31T06:30:05.801Z,1001.91
2016-05-31T06:31:05.834Z,1001.91
2016-05-31T06:32:05.884Z,1001.94
2016-05-31T06:33:05.948Z,1001.88
2016-05-31T06:34:05.999Z,1001.87
2016-05-31T06:35:06.048Z,1001.87
2016-05-31T06:36:06.098Z,1001.9
2016-05-31T06:37:06.162Z,1001.88
2016-05-31T06:38:06.198Z,1001.92
2016-05-31T06:39:06.262Z,1001.92
2016-05-31T06:40:06.327Z,1001.91
2016-05-31T06:41:06.361Z,1001.92
2016-05-31T06:42:06.426Z,1001.93
2016-05-31T06:43:06.461Z,1001.95
2016-05-31T06:44:06.525Z,1001.95
2016-05-31T06:45:06.575Z,1001.95
2016-05-31T06:46:06.624Z,1001.97
2016-05-31T06:47:06.675Z,1001.98
2016-05-31T06:48:06.739Z,1002
2016-05-31T06:49:06.805Z,1001.96
2016-05-31T06:50:06.839Z,1001.96
2016-05-31T06:51:06.888Z,1001.98
2016-05-31T06:52:06.953Z,1002.06
2016-05-31T06:53:06.987Z,1002.11
2016-05-31T06:54:07.052Z,1002.07
2016-05-31T06:55:07.102Z,1002.09
2016-05-31T06:56:07.152Z,1002.08
2016-05-31T06:57:07.201Z,1002.04
2016-05-31T06:58:07.266Z,1002.14
2016-05-31T06:59:07.363Z,1002.11
2016-05-31T07:00:07.366Z,1002.13
2016-05-31T07:01:07.431Z,1002.1
2016-05-31T07:02:07.465Z,1002.1
2016-05-31T07:03:07.529Z,1002.07
2016-05-31T07:04:07.579Z,1002.08
2016-05-31T07:05:07.629Z,1002.09
2016-05-31T07:06:07.678Z,1002.09
2016-05-31T07:07:07.743Z,1002.12
2016-05-31T07:08:07.981Z,1002.12
2016-05-31T07:09:07.843Z,1002.12
2016-05-31T07:10:07.892Z,1002.12
2016-05-31T07:11:07.942Z,1002.12
2016-05-31T07:12:08.006Z,1002.12
2016-05-31T07:13:08.057Z,1002.13
2016-05-31T07:14:08.106Z,1002.15
2016-05-31T07:15:08.156Z,1002.13
2016-05-31T07:16:08.205Z,1002.19
2016-05-31T07:17:08.270Z,1002.2
2016-05-31T07:18:08.319Z,1002.21
2016-05-31T07:19:08.370Z,1002.18
2016-05-31T07:20:08.435Z,1002.22
2016-05-31T07:21:08.485Z,1002.23
2016-05-31T07:22:08.533Z,1002.24
2016-05-31T07:23:08.772Z,1002.23
2016-05-31T07:24:08.649Z,1002.23
2016-05-31T07:25:08.682Z,1002.26
2016-05-31T07:26:08.748Z,1002.27
2016-05-31T07:27:08.797Z,1002.3
2016-05-31T07:28:08.847Z,1002.32
2016-05-31T07:29:08.896Z,1002.33
2016-05-31T07:30:08.946Z,1002.31
2016-05-31T07:31:09.012Z,1002.38
2016-05-31T07:32:09.061Z,1002.4
2016-05-31T07:33:09.142Z,1002.4
2016-05-31T07:34:09.160Z,1002.42
2016-05-31T07:35:09.225Z,1002.43
2016-05-31T07:36:09.275Z,1002.47
2016-05-31T07:37:09.324Z,1002.46
2016-05-31T07:38:09.374Z,1002.47
2016-05-31T07:39:09.439Z,1002.46
2016-05-31T07:40:09.473Z,1002.46
2016-05-31T07:41:09.539Z,1002.44
2016-05-31T07:42:09.587Z,1002.47
2016-05-31T07:43:09.653Z,1002.5
2016-05-31T07:44:09.686Z,1002.48
2016-05-31T07:45:09.753Z,1002.48
2016-05-31T07:46:09.803Z,1002.51
2016-05-31T07:47:09.867Z,1002.56
2016-05-31T07:48:09.916Z,1002.54
2016-05-31T07:49:09.966Z,1002.57
2016-05-31T07:50:10.016Z,1002.56
2016-05-31T07:51:10.128Z,1002.56
2016-05-31T07:52:10.130Z,1002.59
2016-05-31T07:53:10.164Z,1002.59
2016-05-31T07:54:10.229Z,1002.58
2016-05-31T07:55:10.280Z,1002.58
2016-05-31T07:56:10.329Z,1002.54
2016-05-31T07:57:10.394Z,1002.61
2016-05-31T07:58:10.427Z,1002.61
2016-05-31T07:59:10.540Z,1002.6
2016-05-31T08:00:10.574Z,1002.6
2016-05-31T08:01:10.593Z,1002.66
2016-05-31T08:02:10.641Z,1002.63
2016-05-31T08:03:10.706Z,1002.67
2016-05-31T08:04:10.788Z,1002.72
2016-05-31T08:05:10.807Z,1002.68
2016-05-31T08:06:10.856Z,1002.67
2016-05-31T08:07:10.920Z,1002.67
2016-05-31T08:08:10.970Z,1002.68
2016-05-31T08:09:11.019Z,1002.67
2016-05-31T08:10:11.085Z,1002.66
2016-05-31T08:11:11.135Z,1002.63
2016-05-31T08:12:11.184Z,1002.69
2016-05-31T08:13:11.249Z,1002.71
2016-05-31T08:14:11.284Z,1002.69
2016-05-31T08:15:11.333Z,1002.76
2016-05-31T08:16:11.398Z,1002.74
2016-05-31T08:17:11.447Z,1002.73
2016-05-31T08:18:11.497Z,1002.8
2016-05-31T08:19:11.546Z,1002.8
2016-05-31T08:20:11.596Z,1002.77
2016-05-31T08:21:11.661Z,1002.76
2016-05-31T08:22:11.711Z,1002.77
2016-05-31T08:23:11.760Z,1002.75
2016-05-31T08:24:11.825Z,1002.72
2016-05-31T08:25:11.875Z,1002.76
2016-05-31T08:26:11.925Z,1002.73
2016-05-31T08:27:11.974Z,1002.74
2016-05-31T08:28:12.040Z,1002.76
2016-05-31T08:29:12.104Z,1002.75
2016-05-31T08:30:12.139Z,1002.76
2016-05-31T08:31:12.188Z,1002.81
2016-05-31T08:32:12.238Z,1002.82
2016-05-31T08:33:12.303Z,1002.82
2016-05-31T08:34:12.352Z,1002.82
2016-05-31T08:35:12.402Z,1002.83
2016-05-31T08:36:12.467Z,1002.82
2016-05-31T08:37:12.502Z,1002.74
2016-05-31T08:38:12.567Z,1002.78
2016-05-31T08:39:12.616Z,1002.79
2016-05-31T08:40:12.665Z,1002.74
2016-05-31T08:41:12.715Z,1002.76
2016-05-31T08:42:12.781Z,1002.77
2016-05-31T08:43:12.830Z,1002.79
2016-05-31T08:44:12.879Z,1002.86
2016-05-31T08:45:12.929Z,1002.85
2016-05-31T08:46:12.978Z,1002.79
2016-05-31T08:47:13.044Z,1002.79
2016-05-31T08:48:13.094Z,1002.8
2016-05-31T08:49:13.190Z,1002.82
2016-05-31T08:50:13.208Z,1002.79
2016-05-31T08:51:13.258Z,1002.79
2016-05-31T08:52:13.307Z,1002.88
2016-05-31T08:53:13.357Z,1002.83
2016-05-31T08:54:13.422Z,1002.87
2016-05-31T08:55:13.456Z,1002.89
2016-05-31T08:56:13.521Z,1002.89
2016-05-31T08:57:13.571Z,1002.88
2016-05-31T08:58:13.621Z,1002.88
2016-05-31T08:59:13.732Z,1002.88
2016-05-31T09:00:13.735Z,1002.97
2016-05-31T09:01:13.769Z,1002.92
2016-05-31T09:02:13.834Z,1002.95
2016-05-31T09:03:13.884Z,1002.98
2016-05-31T09:04:13.933Z,1002.96
2016-05-31T09:05:13.998Z,1002.96
2016-05-31T09:06:14.048Z,1003
2016-05-31T09:07:14.098Z,1003.02
2016-05-31T09:08:14.569Z,1003.03
2016-05-31T09:09:14.228Z,1003.06
2016-05-31T09:10:14.262Z,1003.02
2016-05-31T09:11:14.311Z,1003.09
2016-05-31T09:12:14.361Z,1003.06
2016-05-31T09:13:14.426Z,1003.07
2016-05-31T09:14:14.476Z,1003.05
2016-05-31T09:15:14.525Z,1003.04
2016-05-31T09:16:14.575Z,1003.08
2016-05-31T09:17:14.624Z,1003.11
2016-05-31T09:18:14.690Z,1003.14
2016-05-31T09:19:14.739Z,1003.1
2016-05-31T09:20:14.789Z,1003.15
2016-05-31T09:21:14.838Z,1003.13
2016-05-31T09:22:14.889Z,1003.09
2016-05-31T09:23:14.952Z,1003.12
2016-05-31T09:24:15.003Z,1003.13
2016-05-31T09:25:15.052Z,1003.2
2016-05-31T09:26:15.117Z,1003.13
2016-05-31T09:27:15.151Z,1003.2
2016-05-31T09:28:15.217Z,1003.24
2016-05-31T09:29:15.266Z,1003.16
2016-05-31T09:30:15.316Z,1003.19
2016-05-31T09:31:15.365Z,1003.2
2016-05-31T09:32:15.431Z,1003.17
2016-05-31T09:33:15.479Z,1003.2
2016-05-31T09:34:15.530Z,1003.24
2016-05-31T09:35:15.595Z,1003.24
2016-05-31T09:36:15.628Z,1003.23
2016-05-31T09:37:15.694Z,1003.27
2016-05-31T09:38:15.744Z,1003.29
2016-05-31T09:39:15.793Z,1003.31
2016-05-31T09:40:15.859Z,1003.29
2016-05-31T09:41:15.892Z,1003.36
2016-05-31T09:42:15.957Z,1003.33
2016-05-31T09:43:16.006Z,1003.36
2016-05-31T09:44:16.056Z,1003.38
2016-05-31T09:45:16.106Z,1003.36
2016-05-31T09:46:16.187Z,1003.36
2016-05-31T09:47:16.220Z,1003.33
2016-05-31T09:48:16.270Z,1003.37
2016-05-31T09:49:16.320Z,1003.37
2016-05-31T09:50:16.386Z,1003.35
2016-05-31T09:51:16.434Z,1003.35
2016-05-31T09:52:16.484Z,1003.37
2016-05-31T09:53:16.533Z,1003.47
2016-05-31T09:54:16.583Z,1003.49
2016-05-31T09:55:16.649Z,1003.49
2016-05-31T09:56:16.698Z,1003.46
2016-05-31T09:57:16.747Z,1003.49
2016-05-31T09:58:16.797Z,1003.48
2016-05-31T09:59:16.909Z,1003.48
2016-05-31T10:00:16.928Z,1003.55
2016-05-31T10:01:16.961Z,1003.6
2016-05-31T10:02:17.011Z,1003.56
2016-05-31T10:03:17.060Z,1003.59
2016-05-31T10:04:17.126Z,1003.6
2016-05-31T10:05:17.175Z,1003.66
2016-05-31T10:06:17.225Z,1003.64
2016-05-31T10:07:17.290Z,1003.62
2016-05-31T10:08:17.324Z,1003.6
2016-05-31T10:09:17.373Z,1003.65
2016-05-31T10:10:17.440Z,1003.71
2016-05-31T10:11:17.488Z,1003.73
2016-05-31T10:12:17.538Z,1003.7
2016-05-31T10:13:17.618Z,1003.72
2016-05-31T10:14:17.653Z,1003.77
2016-05-31T10:15:17.702Z,1003.76
2016-05-31T10:16:17.752Z,1003.78
2016-05-31T10:17:17.801Z,1003.79
2016-05-31T10:18:17.867Z,1003.77
2016-05-31T10:19:17.916Z,1003.76
2016-05-31T10:20:17.967Z,1003.81
2016-05-31T10:21:18.031Z,1003.79
2016-05-31T10:22:18.096Z,1003.81
2016-05-31T10:23:18.131Z,1003.8
2016-05-31T10:24:18.180Z,1003.81
2016-05-31T10:25:18.244Z,1003.88
2016-05-31T10:26:18.294Z,1003.89
2016-05-31T10:27:18.360Z,1003.89
2016-05-31T10:28:18.394Z,1003.9
2016-05-31T10:29:18.443Z,1003.93
2016-05-31T10:30:18.508Z,1003.94
2016-05-31T10:31:18.558Z,1003.96
2016-05-31T10:32:18.607Z,1003.95
2016-05-31T10:33:18.657Z,1003.95
2016-05-31T10:34:18.707Z,1003.94
2016-05-31T10:35:18.756Z,1003.94
2016-05-31T10:36:18.821Z,1003.98
2016-05-31T10:37:18.871Z,1003.99
2016-05-31T10:38:18.921Z,1003.98
2016-05-31T10:39:18.970Z,1003.98
2016-05-31T10:40:19.051Z,1003.97
2016-05-31T10:41:19.085Z,1003.99
2016-05-31T10:42:19.134Z,1003.96
2016-05-31T10:43:19.199Z,1003.99
2016-05-31T10:44:19.249Z,1003.97
2016-05-31T10:45:19.298Z,1003.98
2016-05-31T10:46:19.348Z,1004.04
2016-05-31T10:47:19.398Z,1004.01
2016-05-31T10:48:19.447Z,1004.04
2016-05-31T10:49:19.498Z,1004.04
2016-05-31T10:50:19.562Z,1004.03
2016-05-31T10:51:19.612Z,1004.05
2016-05-31T10:52:19.661Z,1004.09
2016-05-31T10:53:20.350Z,1004.04
2016-05-31T10:54:19.761Z,1004.04
2016-05-31T10:55:19.825Z,1004.08
2016-05-31T10:56:19.875Z,1004.08
2016-05-31T10:57:19.925Z,1004.09
2016-05-31T10:58:19.989Z,1004.13
2016-05-31T10:59:20.086Z,1004.11
2016-05-31T11:00:20.089Z,1004.1
2016-05-31T11:01:20.138Z,1004.13
2016-05-31T11:02:20.204Z,1004.12
2016-05-31T11:03:20.238Z,1004.13
2016-05-31T11:04:20.302Z,1004.09
2016-05-31T11:05:20.352Z,1004.12
2016-05-31T11:06:20.402Z,1004.14
2016-05-31T11:07:20.467Z,1004.17
2016-05-31T11:08:20.533Z,1004.15
2016-05-31T11:09:20.566Z,1004.21
2016-05-31T11:10:20.615Z,1004.21
2016-05-31T11:11:20.665Z,1004.22
2016-05-31T11:12:20.715Z,1004.2
2016-05-31T11:13:20.779Z,1004.24
2016-05-31T11:14:20.830Z,1004.25
2016-05-31T11:15:20.879Z,1004.28
2016-05-31T11:16:20.945Z,1004.27
2016-05-31T11:17:20.995Z,1004.26
2016-05-31T11:18:21.043Z,1004.24
2016-05-31T11:19:21.093Z,1004.25
2016-05-31T11:20:21.158Z,1004.21
2016-05-31T11:21:21.208Z,1004.27
2016-05-31T11:22:21.258Z,1004.29
2016-05-31T11:23:21.307Z,1004.27
2016-05-31T11:24:21.356Z,1004.28
2016-05-31T11:25:21.406Z,1004.27
2016-05-31T11:26:21.456Z,1004.27
2016-05-31T11:27:21.521Z,1004.29
2016-05-31T11:28:21.570Z,1004.34
2016-05-31T11:29:21.620Z,1004.32
2016-05-31T11:30:21.669Z,1004.32
2016-05-31T11:31:21.735Z,1004.36
2016-05-31T11:32:21.784Z,1004.35
2016-05-31T11:33:21.834Z,1004.34
2016-05-31T11:34:21.899Z,1004.36
2016-05-31T11:35:21.933Z,1004.36
2016-05-31T11:36:21.998Z,1004.37
2016-05-31T11:37:22.048Z,1004.34
2016-05-31T11:38:22.096Z,1004.33
2016-05-31T11:39:22.146Z,1004.34
2016-05-31T11:40:22.213Z,1004.31
2016-05-31T11:41:22.262Z,1004.31
2016-05-31T11:42:22.311Z,1004.34
2016-05-31T11:43:22.361Z,1004.39
2016-05-31T11:44:22.426Z,1004.34
2016-05-31T11:45:22.476Z,1004.38
2016-05-31T11:46:22.526Z,1004.37
2016-05-31T11:47:22.590Z,1004.35
2016-05-31T11:48:22.639Z,1004.35
2016-05-31T11:49:22.673Z,1004.39
2016-05-31T11:50:22.739Z,1004.34
2016-05-31T11:51:22.789Z,1004.38
2016-05-31T11:52:22.839Z,1004.39
2016-05-31T11:53:22.887Z,1004.4
2016-05-31T11:54:22.953Z,1004.39
2016-05-31T11:55:23.002Z,1004.36
2016-05-31T11:56:23.067Z,1004.42
2016-05-31T11:57:23.117Z,1004.39
2016-05-31T11:58:23.167Z,1004.41
2016-05-31T11:59:23.263Z,1004.46
2016-05-31T12:00:23.266Z,1004.43
2016-05-31T12:01:23.315Z,1004.41
2016-05-31T12:02:23.380Z,1004.39
2016-05-31T12:03:23.431Z,1004.43
2016-05-31T12:04:23.480Z,1004.39
2016-05-31T12:05:23.530Z,1004.4
2016-05-31T12:06:23.594Z,1004.42
2016-05-31T12:07:23.643Z,1004.41
2016-05-31T12:08:23.694Z,1004.43
2016-05-31T12:09:23.744Z,1004.43
2016-05-31T12:10:23.808Z,1004.45
2016-05-31T12:11:23.858Z,1004.43
2016-05-31T12:12:23.907Z,1004.4
2016-05-31T12:13:23.957Z,1004.41
2016-05-31T12:14:24.007Z,1004.46